createdAt,value
2018-11-28T00:00:19.226Z,67.97
2018-11-28T00:01:19.567Z,68.49
2018-11-28T00:02:19.439Z,68.25
2018-11-28T00:03:19.212Z,67.97
2018-11-28T00:04:19.245Z,68.25
2018-11-28T00:05:19.962Z,69.12
2018-11-28T00:06:19.158Z,67.94
2018-11-28T00:07:19.149Z,68.49
2018-11-28T00:08:19.486Z,68.28
2018-11-28T00:09:19.386Z,67.86
2018-11-28T00:10:19.125Z,68.18
2018-11-28T00:12:34.064Z,68.60
2018-11-28T00:13:32.836Z,69.43
2018-11-28T00:14:33.055Z,69.74
2018-11-28T00:15:33.027Z,69.32
2018-11-28T00:16:33.067Z,69.64
2018-11-28T00:17:33.159Z,69.95
2018-11-28T00:18:33.175Z,69.50
2018-11-28T00:19:32.876Z,69.95
2018-11-28T00:20:32.782Z,69.50
2018-11-28T00:21:33.070Z,69.43
2018-11-28T00:22:33.066Z,68.18
2018-11-28T00:23:33.074Z,67.97
2018-11-28T00:24:33.018Z,68.28
2018-11-28T00:25:32.930Z,68.04
2018-11-28T00:27:45.333Z,69.74
2018-11-28T00:28:44.961Z,69.84
2018-11-28T00:29:44.891Z,70.36
2018-11-28T00:30:44.737Z,69.95
2018-11-28T00:31:45.020Z,69.53
2018-11-28T00:32:44.866Z,69.64
2018-11-28T00:33:45.677Z,69.29
2018-11-28T00:34:44.669Z,68.91
2018-11-28T00:35:44.959Z,69.40
2018-11-28T00:36:44.856Z,69.64
2018-11-28T00:37:44.683Z,69.29
2018-11-28T00:38:44.604Z,69.74
2018-11-28T00:39:45.214Z,67.86
2018-11-28T00:40:44.718Z,68.80
2018-11-28T00:42:57.422Z,69.40
2018-11-28T00:43:57.014Z,69.64
2018-11-28T00:44:56.916Z,69.43
2018-11-28T00:45:56.822Z,69.53
2018-11-28T00:46:57.105Z,69.32
2018-11-28T00:47:57.000Z,69.43
2018-11-28T00:48:56.860Z,69.12
2018-11-28T00:49:57.069Z,69.01
2018-11-28T00:50:56.967Z,68.07
2018-11-28T00:51:56.875Z,68.91
2018-11-28T00:52:57.223Z,69.22
2018-11-28T00:53:56.695Z,69.87
2018-11-28T00:54:56.894Z,69.43
2018-11-28T00:55:57.155Z,69.74
2018-11-28T00:58:10.734Z,69.67
2018-11-28T00:59:10.019Z,69.67
2018-11-28T01:00:10.137Z,70.29
2018-11-28T01:01:10.098Z,70.29
2018-11-28T01:02:10.114Z,70.40
2018-11-28T01:03:09.958Z,69.87
2018-11-28T01:04:10.779Z,70.29
2018-11-28T01:05:10.101Z,70.09
2018-11-28T01:06:10.140Z,70.29
2018-11-28T01:07:10.118Z,70.19
2018-11-28T01:08:10.178Z,69.25
2018-11-28T01:09:10.021Z,70.09
2018-11-28T01:10:10.535Z,70.19
2018-11-28T01:11:10.140Z,70.09
2018-11-28T01:12:09.943Z,70.50
2018-11-28T01:14:23.073Z,70.40
2018-11-28T01:15:22.034Z,70.09
2018-11-28T01:16:23.296Z,70.71
2018-11-28T01:17:22.164Z,70.40
2018-11-28T01:18:22.326Z,70.81
2018-11-28T01:19:22.017Z,70.92
2018-11-28T01:20:23.428Z,70.61
2018-11-28T01:21:22.180Z,70.84
2018-11-28T01:22:22.063Z,71.37
2018-11-28T01:23:21.896Z,71.68
2018-11-28T01:24:21.873Z,71.37
2018-11-28T01:25:21.697Z,71.05
2018-11-28T01:26:22.531Z,71.68
2018-11-28T01:27:21.854Z,70.84
2018-11-28T01:29:44.353Z,71.89
2018-11-28T01:30:43.956Z,70.74
2018-11-28T01:31:43.894Z,70.84
2018-11-28T01:32:43.844Z,71.05
2018-11-28T01:33:43.675Z,70.95
2018-11-28T01:34:43.874Z,71.47
2018-11-28T01:35:44.711Z,70.84
2018-11-28T01:36:43.693Z,71.47
2018-11-28T01:37:43.928Z,71.37
2018-11-28T01:38:44.154Z,71.58
2018-11-28T01:39:43.724Z,71.61
2018-11-28T01:40:43.931Z,71.47
2018-11-28T01:41:44.255Z,72.09
2018-11-28T01:42:43.748Z,72.51
2018-11-28T01:45:16.209Z,72.24
2018-11-28T01:46:15.950Z,72.30
2018-11-28T01:47:15.682Z,72.02
2018-11-28T01:48:15.517Z,72.41
2018-11-28T01:49:15.414Z,72.86
2018-11-28T01:50:15.933Z,72.44
2018-11-28T01:51:15.542Z,72.51
2018-11-28T01:52:15.383Z,72.72
2018-11-28T01:53:15.652Z,72.83
2018-11-28T01:54:17.157Z,72.65
2018-11-28T01:55:15.370Z,72.75
2018-11-28T01:56:15.979Z,73.17
2018-11-28T01:57:16.162Z,73.24
2018-11-28T01:58:16.099Z,73.45
2018-11-28T02:00:27.208Z,73.90
2018-11-28T02:01:27.182Z,73.59
2018-11-28T02:02:27.086Z,73.80
2018-11-28T02:03:26.988Z,73.90
2018-11-28T02:04:27.533Z,74.21
2018-11-28T02:05:27.098Z,74.63
2018-11-28T02:06:27.217Z,74.21
2018-11-28T02:07:26.922Z,73.86
2018-11-28T02:08:27.146Z,73.69
2018-11-28T02:09:27.031Z,74.52
2018-11-28T02:10:27.171Z,74.74
2018-11-28T02:11:27.172Z,74.52
2018-11-28T02:12:27.053Z,74.42
2018-11-28T02:13:26.973Z,74.21
2018-11-28T02:15:39.182Z,74.39
2018-11-28T02:16:38.959Z,74.32
2018-11-28T02:17:39.225Z,74.11
2018-11-28T02:18:38.764Z,74.29
2018-11-28T02:19:39.600Z,74.29
2018-11-28T02:20:38.884Z,74.39
2018-11-28T02:21:38.792Z,74.42
2018-11-28T02:22:38.707Z,74.39
2018-11-28T02:23:38.920Z,74.32
2018-11-28T02:24:38.819Z,75.26
2018-11-28T02:25:39.226Z,75.98
2018-11-28T02:26:38.690Z,75.67
2018-11-28T02:27:38.846Z,75.50
2018-11-28T02:28:38.823Z,75.50
2018-11-28T02:31:02.563Z,75.78
2018-11-28T02:32:02.180Z,76.51
2018-11-28T02:33:02.018Z,76.20
2018-11-28T02:34:01.927Z,76.09
2018-11-28T02:35:02.202Z,76.20
2018-11-28T02:36:02.062Z,75.88
2018-11-28T02:37:02.227Z,76.09
2018-11-28T02:38:02.203Z,75.57
2018-11-28T02:39:02.058Z,75.67
2018-11-28T02:40:01.976Z,75.46
2018-11-28T02:41:01.897Z,75.71
2018-11-28T02:42:01.870Z,75.57
2018-11-28T02:43:02.628Z,75.67
2018-11-28T02:44:01.997Z,75.67
2018-11-28T02:46:14.614Z,75.46
2018-11-28T02:47:13.906Z,76.43
2018-11-28T02:48:14.395Z,75.81
2018-11-28T02:49:13.703Z,76.33
2018-11-28T02:50:13.674Z,76.16
2018-11-28T02:51:13.875Z,76.57
2018-11-28T02:52:13.738Z,76.57
2018-11-28T02:53:13.640Z,77.20
2018-11-28T02:54:14.214Z,76.61
2018-11-28T02:55:13.760Z,77.66
2018-11-28T02:56:13.665Z,78.32
2018-11-28T02:57:13.571Z,78.00
2018-11-28T02:58:13.824Z,78.42
2018-11-28T02:59:13.686Z,78.84
2018-11-28T03:02:01.270Z,79.36
2018-11-28T03:03:00.097Z,79.78
2018-11-28T03:03:59.999Z,79.61
2018-11-28T03:05:00.974Z,80.02
2018-11-28T03:06:00.748Z,80.65
2018-11-28T03:07:00.024Z,80.24
2018-11-28T03:08:00.644Z,80.76
2018-11-28T03:09:00.241Z,81.42
2018-11-28T03:10:00.233Z,81.42
2018-11-28T03:10:59.996Z,81.32
2018-11-28T03:12:01.968Z,81.63
2018-11-28T03:12:59.763Z,81.42
2018-11-28T03:14:00.050Z,81.42
2018-11-28T03:15:00.287Z,81.32
2018-11-28T03:17:25.395Z,82.05
2018-11-28T03:18:24.158Z,81.98
2018-11-28T03:19:24.517Z,82.40
2018-11-28T03:20:24.651Z,82.60
2018-11-28T03:21:24.813Z,82.82
2018-11-28T03:22:24.080Z,82.54
2018-11-28T03:23:24.912Z,82.92
2018-11-28T03:24:24.508Z,83.27
2018-11-28T03:25:24.136Z,83.34
2018-11-28T03:26:24.019Z,83.27
2018-11-28T03:27:23.925Z,83.80
2018-11-28T03:28:24.138Z,83.69
2018-11-28T03:29:24.286Z,83.80
2018-11-28T03:31:37.313Z,84.42
2018-11-28T03:32:38.213Z,84.22
2018-11-28T03:33:37.293Z,84.53
2018-11-28T03:34:37.072Z,84.74
2018-11-28T03:35:37.609Z,85.47
2018-11-28T03:36:37.194Z,85.93
2018-11-28T03:37:37.116Z,85.78
2018-11-28T03:38:37.017Z,86.41
2018-11-28T03:39:37.219Z,85.99
2018-11-28T03:40:37.135Z,85.58
2018-11-28T03:41:37.664Z,85.36
2018-11-28T03:42:36.950Z,85.51
2018-11-28T03:43:37.144Z,85.36
2018-11-28T03:44:37.059Z,85.58
2018-11-28T03:45:37.441Z,85.30
2018-11-28T03:48:01.029Z,85.51
2018-11-28T03:49:00.045Z,85.41
2018-11-28T03:49:59.924Z,85.93
2018-11-28T03:51:00.758Z,86.04
2018-11-28T03:52:00.363Z,86.04
2018-11-28T03:53:00.774Z,85.82
2018-11-28T03:54:00.281Z,86.35
2018-11-28T03:55:00.615Z,86.14
2018-11-28T03:55:59.959Z,86.35
2018-11-28T03:57:00.234Z,86.14
2018-11-28T03:58:00.138Z,86.07
2018-11-28T03:58:59.794Z,85.93
2018-11-28T04:00:00.300Z,86.18
2018-11-28T04:01:00.368Z,86.18
2018-11-28T04:03:21.420Z,86.28
2018-11-28T04:04:21.281Z,86.38
2018-11-28T04:05:21.377Z,86.49
2018-11-28T04:06:21.130Z,86.80
2018-11-28T04:07:21.046Z,86.80
2018-11-28T04:08:21.332Z,87.12
2018-11-28T04:09:21.366Z,86.91
2018-11-28T04:10:21.069Z,87.33
2018-11-28T04:11:21.513Z,87.01
2018-11-28T04:12:21.185Z,87.12
2018-11-28T04:13:21.154Z,87.37
2018-11-28T04:14:21.317Z,87.26
2018-11-28T04:15:22.297Z,87.37
2018-11-28T04:16:20.954Z,87.89
2018-11-28T04:18:33.820Z,87.58
2018-11-28T04:19:33.304Z,87.68
2018-11-28T04:20:33.400Z,87.58
2018-11-28T04:21:33.232Z,87.37
2018-11-28T04:22:33.143Z,87.47
2018-11-28T04:23:33.541Z,87.47
2018-11-28T04:24:33.305Z,87.47
2018-11-28T04:25:33.158Z,87.58
2018-11-28T04:26:33.072Z,87.68
2018-11-28T04:27:33.275Z,88.42
2018-11-28T04:28:33.192Z,88.31
2018-11-28T04:29:33.395Z,88.21
2018-11-28T04:30:33.343Z,88.42
2018-11-28T04:31:33.212Z,87.89
2018-11-28T04:33:45.997Z,88.56
2018-11-28T04:34:45.301Z,88.56
2018-11-28T04:35:46.152Z,88.56
2018-11-28T04:36:45.092Z,88.56
2018-11-28T04:37:44.997Z,88.67
2018-11-28T04:38:45.181Z,88.77
2018-11-28T04:39:45.077Z,89.47
2018-11-28T04:40:44.939Z,89.19
2018-11-28T04:41:46.329Z,89.61
2018-11-28T04:42:46.291Z,89.50
2018-11-28T04:43:44.965Z,89.61
2018-11-28T04:44:45.285Z,89.50
2018-11-28T04:45:45.549Z,89.50
2018-11-28T04:46:45.073Z,89.40
2018-11-28T04:48:59.414Z,89.61
2018-11-28T04:49:58.278Z,89.34
2018-11-28T04:50:58.664Z,89.61
2018-11-28T04:51:58.362Z,89.82
2018-11-28T04:52:58.234Z,89.72
2018-11-28T04:53:58.148Z,89.54
2018-11-28T04:54:58.735Z,89.12
2018-11-28T04:55:58.426Z,89.23
2018-11-28T04:56:58.367Z,89.44
2018-11-28T04:57:58.105Z,89.97
2018-11-28T04:58:57.969Z,89.97
2018-11-28T04:59:59.426Z,90.07
2018-11-28T05:00:58.098Z,90.07
2018-11-28T05:01:58.379Z,90.07
2018-11-28T05:04:13.386Z,89.97
2018-11-28T05:05:11.218Z,90.28
2018-11-28T05:06:11.342Z,90.07
2018-11-28T05:07:11.457Z,90.38
2018-11-28T05:08:11.250Z,90.49
2018-11-28T05:09:11.153Z,90.49
2018-11-28T05:10:11.358Z,90.38
2018-11-28T05:11:11.263Z,90.49
2018-11-28T05:12:11.168Z,90.38
2018-11-28T05:13:12.090Z,90.49
2018-11-28T05:14:11.289Z,90.59
2018-11-28T05:15:11.190Z,90.70
2018-11-28T05:16:11.104Z,90.59
2018-11-28T05:17:11.476Z,90.59
2018-11-28T05:19:24.397Z,90.84
2018-11-28T05:20:25.397Z,90.80
2018-11-28T05:21:24.804Z,90.59
2018-11-28T05:22:26.378Z,90.80
2018-11-28T05:23:24.474Z,91.01
2018-11-28T05:24:25.008Z,91.16
2018-11-28T05:25:24.624Z,91.12
2018-11-28T05:26:24.412Z,90.59
2018-11-28T05:27:24.267Z,90.80
2018-11-28T05:28:25.382Z,91.33
2018-11-28T05:29:24.297Z,91.68
2018-11-28T05:30:24.217Z,91.37
2018-11-28T05:31:24.383Z,91.58
2018-11-28T05:32:24.019Z,90.95
2018-11-28T05:33:24.044Z,91.12
2018-11-28T05:35:36.408Z,90.95
2018-11-28T05:36:36.307Z,91.05
2018-11-28T05:37:36.139Z,91.05
2018-11-28T05:38:36.041Z,91.16
2018-11-28T05:39:36.380Z,90.95
2018-11-28T05:40:36.155Z,90.74
2018-11-28T05:41:36.071Z,91.05
2018-11-28T05:42:36.472Z,91.37
2018-11-28T05:43:36.497Z,91.58
2018-11-28T05:44:36.081Z,91.58
2018-11-28T05:45:36.427Z,92.00
2018-11-28T05:46:36.217Z,91.72
2018-11-28T05:47:36.116Z,91.79
2018-11-28T05:48:37.630Z,92.10
2018-11-28T05:51:02.471Z,91.83
2018-11-28T05:51:59.387Z,92.14
2018-11-28T05:52:59.315Z,91.72
2018-11-28T05:53:59.408Z,91.83
2018-11-28T05:54:59.697Z,91.83
2018-11-28T05:55:59.307Z,91.94
2018-11-28T05:56:59.834Z,91.62
2018-11-28T05:57:59.397Z,91.94
2018-11-28T05:58:59.331Z,91.94
2018-11-28T05:59:59.298Z,91.72
2018-11-28T06:00:59.401Z,92.35
2018-11-28T06:01:59.350Z,92.35
2018-11-28T06:02:59.447Z,92.67
2018-11-28T06:03:59.183Z,92.77
2018-11-28T06:06:23.455Z,92.46
2018-11-28T06:07:23.408Z,92.46
2018-11-28T06:08:23.443Z,92.88
2018-11-28T06:09:22.967Z,92.57
2018-11-28T06:10:22.866Z,92.46
2018-11-28T06:11:23.080Z,92.77
2018-11-28T06:12:23.051Z,92.67
2018-11-28T06:13:23.418Z,92.82
2018-11-28T06:14:23.120Z,92.88
2018-11-28T06:15:23.008Z,92.88
2018-11-28T06:16:22.929Z,92.77
2018-11-28T06:17:22.822Z,92.77
2018-11-28T06:18:23.040Z,92.77
2018-11-28T06:19:23.373Z,93.02
2018-11-28T06:21:36.463Z,92.99
2018-11-28T06:22:36.419Z,93.09
2018-11-28T06:23:36.368Z,92.77
2018-11-28T06:24:36.888Z,92.99
2018-11-28T06:25:36.206Z,92.92
2018-11-28T06:26:36.389Z,93.19
2018-11-28T06:27:36.330Z,93.30
2018-11-28T06:28:36.224Z,93.19
2018-11-28T06:29:36.432Z,93.30
2018-11-28T06:30:36.501Z,92.99
2018-11-28T06:31:36.254Z,92.99
2018-11-28T06:32:36.177Z,92.99
2018-11-28T06:33:36.356Z,93.02
2018-11-28T06:34:36.439Z,92.92
2018-11-28T06:36:48.450Z,92.71
2018-11-28T06:37:48.256Z,92.88
2018-11-28T06:38:48.240Z,92.35
2018-11-28T06:39:48.400Z,92.82
2018-11-28T06:40:48.447Z,92.29
2018-11-28T06:41:48.192Z,92.61
2018-11-28T06:42:48.786Z,92.50
2018-11-28T06:43:48.311Z,92.77
2018-11-28T06:44:48.230Z,92.88
2018-11-28T06:45:48.534Z,92.77
2018-11-28T06:46:48.025Z,92.46
2018-11-28T06:47:48.244Z,92.92
2018-11-28T06:48:48.611Z,92.82
2018-11-28T06:49:48.455Z,92.19
2018-11-28T06:52:02.896Z,92.57
2018-11-28T06:53:02.450Z,92.61
2018-11-28T06:54:03.493Z,92.57
2018-11-28T06:55:02.311Z,92.57
2018-11-28T06:56:02.460Z,92.46
2018-11-28T06:57:02.487Z,92.67
2018-11-28T06:58:02.946Z,92.57
2018-11-28T06:59:02.470Z,92.57
2018-11-28T07:00:02.486Z,92.46
2018-11-28T07:01:02.464Z,92.40
2018-11-28T07:02:02.268Z,91.83
2018-11-28T07:03:03.509Z,92.08
2018-11-28T07:04:02.479Z,91.72
2018-11-28T07:05:02.143Z,91.94
2018-11-28T07:07:14.523Z,92.35
2018-11-28T07:08:14.312Z,92.04
2018-11-28T07:09:15.545Z,92.14
2018-11-28T07:10:14.398Z,91.97
2018-11-28T07:11:14.678Z,92.04
2018-11-28T07:12:14.962Z,92.08
2018-11-28T07:13:14.642Z,91.72
2018-11-28T07:14:14.635Z,91.62
2018-11-28T07:15:14.745Z,90.92
2018-11-28T07:16:31.709Z,91.52
2018-11-28T07:17:14.355Z,90.99
2018-11-28T07:18:14.724Z,91.20
2018-11-28T07:19:14.159Z,90.99
2018-11-28T07:20:14.143Z,90.67
2018-11-28T07:22:25.822Z,90.89
2018-11-28T07:23:25.773Z,90.25
2018-11-28T07:24:32.044Z,90.47
2018-11-28T07:25:25.691Z,90.47
2018-11-28T07:26:25.738Z,90.36
2018-11-28T07:27:25.490Z,90.00
2018-11-28T07:28:25.587Z,89.90
2018-11-28T07:29:26.721Z,90.25
2018-11-28T07:30:26.327Z,89.94
2018-11-28T07:31:25.613Z,89.62
2018-11-28T07:32:25.516Z,89.62
2018-11-28T07:33:25.449Z,89.52
2018-11-28T07:34:25.365Z,89.69
2018-11-28T07:35:25.289Z,89.69
2018-11-28T07:37:37.789Z,89.06
2018-11-28T07:38:36.619Z,88.75
2018-11-28T07:39:36.873Z,88.64
2018-11-28T07:40:36.703Z,88.39
2018-11-28T07:41:36.662Z,88.54
2018-11-28T07:42:36.753Z,88.18
2018-11-28T07:43:36.446Z,88.12
2018-11-28T07:44:36.708Z,87.87
2018-11-28T07:45:36.572Z,88.07
2018-11-28T07:46:36.482Z,87.76
2018-11-28T07:47:36.690Z,87.70
2018-11-28T07:48:36.805Z,87.66
2018-11-28T07:49:36.526Z,87.76
2018-11-28T07:50:36.497Z,87.87
2018-11-28T07:51:36.722Z,87.45
2018-11-28T07:53:49.807Z,87.45
2018-11-28T07:54:48.621Z,87.34
2018-11-28T07:55:48.539Z,86.92
2018-11-28T07:56:48.769Z,86.40
2018-11-28T07:57:48.757Z,86.29
2018-11-28T07:58:49.154Z,86.61
2018-11-28T07:59:49.817Z,86.51
2018-11-28T08:00:48.661Z,86.05
2018-11-28T08:01:48.570Z,86.15
2018-11-28T08:02:48.787Z,85.88
2018-11-28T08:03:48.740Z,86.19
2018-11-28T08:04:48.929Z,85.63
2018-11-28T08:05:48.502Z,85.10
2018-11-28T08:06:48.778Z,85.63
2018-11-28T08:09:02.352Z,84.89
2018-11-28T08:10:01.645Z,84.47
2018-11-28T08:11:04.299Z,84.16
2018-11-28T08:12:01.758Z,85.00
2018-11-28T08:13:01.659Z,84.54
2018-11-28T08:14:01.783Z,83.42
2018-11-28T08:15:03.099Z,83.81
2018-11-28T08:16:01.364Z,83.28
2018-11-28T08:17:01.582Z,82.86
2018-11-28T08:18:01.513Z,83.18
2018-11-28T08:19:03.291Z,83.28
2018-11-28T08:20:01.778Z,82.76
2018-11-28T08:21:01.621Z,82.65
2018-11-28T08:22:01.724Z,82.55
2018-11-28T08:24:38.337Z,81.92
2018-11-28T08:25:35.550Z,81.82
2018-11-28T08:26:35.747Z,80.77
2018-11-28T08:27:35.432Z,80.77
2018-11-28T08:28:36.126Z,80.77
2018-11-28T08:29:36.099Z,81.19
2018-11-28T08:30:35.771Z,81.82
2018-11-28T08:31:35.273Z,81.46
2018-11-28T08:32:36.460Z,81.08
2018-11-28T08:33:35.387Z,80.66
2018-11-28T08:34:35.291Z,80.77
2018-11-28T08:35:36.432Z,80.98
2018-11-28T08:36:36.349Z,80.83
2018-11-28T08:37:35.742Z,80.63
2018-11-28T08:40:08.876Z,78.95
2018-11-28T08:41:08.893Z,79.47
2018-11-28T08:42:08.844Z,79.68
2018-11-28T08:43:08.653Z,78.74
2018-11-28T08:44:08.536Z,78.22
2018-11-28T08:45:08.750Z,78.29
2018-11-28T08:46:08.899Z,78.70
2018-11-28T08:47:08.559Z,78.50
2018-11-28T08:48:08.909Z,78.18
2018-11-28T08:49:09.601Z,77.66
2018-11-28T08:50:08.601Z,77.76
2018-11-28T08:51:08.489Z,78.08
2018-11-28T08:52:08.844Z,77.83
2018-11-28T08:53:08.622Z,77.83
2018-11-28T08:55:47.440Z,76.89
2018-11-28T08:56:46.757Z,76.51
2018-11-28T08:57:46.968Z,76.89
2018-11-28T08:58:46.983Z,76.89
2018-11-28T08:59:46.742Z,76.57
2018-11-28T09:00:46.646Z,77.10
2018-11-28T09:01:46.818Z,76.79
2018-11-28T09:02:46.761Z,76.47
2018-11-28T09:03:46.821Z,76.75
2018-11-28T09:04:46.575Z,76.23
2018-11-28T09:05:46.793Z,76.23
2018-11-28T09:06:46.700Z,75.71
2018-11-28T09:07:46.597Z,75.81
2018-11-28T09:09:10.230Z,75.95
2018-11-28T09:09:46.764Z,75.74
2018-11-28T09:11:59.187Z,76.33
2018-11-28T09:13:03.974Z,75.71
2018-11-28T09:14:04.548Z,75.18
2018-11-28T09:14:59.456Z,74.76
2018-11-28T09:15:58.430Z,75.39
2018-11-28T09:16:58.667Z,74.76
2018-11-28T09:17:58.841Z,74.35
2018-11-28T09:18:58.460Z,74.63
2018-11-28T09:19:58.819Z,74.63
2018-11-28T09:20:58.571Z,74.00
2018-11-28T09:21:58.477Z,74.21
2018-11-28T09:22:58.384Z,74.21
2018-11-28T09:23:59.145Z,73.86
2018-11-28T09:24:58.498Z,73.34
2018-11-28T09:25:58.437Z,73.24
2018-11-28T09:28:10.531Z,72.89
2018-11-28T09:29:09.798Z,73.41
2018-11-28T09:30:09.803Z,72.89
2018-11-28T09:31:09.596Z,73.20
2018-11-28T09:32:09.927Z,72.68
2018-11-28T09:33:09.902Z,72.68
2018-11-28T09:34:10.580Z,71.74
2018-11-28T09:35:09.523Z,72.47
2018-11-28T09:36:10.661Z,72.33
2018-11-28T09:37:09.641Z,71.78
2018-11-28T09:38:09.652Z,70.23
2018-11-28T09:39:09.767Z,63.02
2018-11-28T09:40:09.670Z,56.08
2018-11-28T09:41:14.376Z,51.00
2018-11-28T09:42:10.686Z,48.19
2018-11-28T09:44:23.418Z,40.23
2018-11-28T09:45:21.817Z,39.28
2018-11-28T09:46:22.847Z,37.29
2018-11-28T09:47:21.599Z,36.56
2018-11-28T09:48:21.821Z,34.37
2018-11-28T09:49:21.734Z,34.17
2018-11-28T09:50:21.951Z,34.30
2018-11-28T09:51:21.989Z,34.40
2018-11-28T09:52:22.348Z,35.32
2018-11-28T09:53:21.654Z,33.74
2018-11-28T09:54:21.558Z,32.79
2018-11-28T09:55:21.775Z,32.25
2018-11-28T09:56:22.211Z,32.15
2018-11-28T09:57:21.590Z,31.35
2018-11-28T09:59:47.880Z,29.97
2018-11-28T10:00:45.870Z,29.64
2018-11-28T10:01:45.768Z,29.22
2018-11-28T10:02:46.033Z,28.19
2018-11-28T10:03:45.954Z,26.97
2018-11-28T10:04:45.986Z,27.15
2018-11-28T10:05:47.256Z,27.47
2018-11-28T10:06:45.872Z,27.17
2018-11-28T10:07:45.870Z,27.14
2018-11-28T10:08:45.722Z,25.94
2018-11-28T10:09:45.856Z,26.47
2018-11-28T10:10:46.005Z,27.25
2018-11-28T10:11:45.854Z,26.14
2018-11-28T10:12:45.859Z,26.76
2018-11-28T10:15:18.317Z,24.79
2018-11-28T10:16:16.862Z,25.18
2018-11-28T10:17:16.865Z,25.17
2018-11-28T10:18:16.758Z,24.27
2018-11-28T10:19:16.861Z,24.58
2018-11-28T10:20:16.625Z,25.43
2018-11-28T10:21:16.878Z,27.19
2018-11-28T10:22:16.739Z,27.12
2018-11-28T10:23:16.637Z,27.98
2018-11-28T10:24:16.851Z,29.23
2018-11-28T10:25:16.770Z,29.71
2018-11-28T10:26:16.698Z,31.59
2018-11-28T10:27:17.036Z,32.24
2018-11-28T10:28:16.795Z,30.58
2018-11-28T10:30:29.371Z,28.08
2018-11-28T10:31:28.879Z,27.55
2018-11-28T10:32:28.910Z,27.56
2018-11-28T10:33:29.257Z,27.25
2018-11-28T10:34:29.625Z,27.76
2018-11-28T10:35:28.716Z,27.92
2018-11-28T10:36:29.615Z,29.58
2018-11-28T10:37:28.951Z,29.66
2018-11-28T10:38:29.877Z,29.16
2018-11-28T10:39:28.637Z,28.94
2018-11-28T10:40:28.897Z,28.94
2018-11-28T10:41:28.924Z,28.83
2018-11-28T10:42:28.663Z,28.39
2018-11-28T10:43:28.564Z,27.53
2018-11-28T10:45:41.608Z,25.57
2018-11-28T10:46:40.880Z,25.33
2018-11-28T10:47:40.894Z,23.99
2018-11-28T10:48:40.907Z,23.56
2018-11-28T10:49:41.015Z,22.85
2018-11-28T10:50:40.919Z,21.63
2018-11-28T10:51:40.903Z,22.88
2018-11-28T10:52:40.905Z,22.98
2018-11-28T10:53:40.966Z,23.21
2018-11-28T10:54:40.904Z,23.93
2018-11-28T10:55:41.559Z,24.45
2018-11-28T10:56:40.846Z,24.65
2018-11-28T10:57:40.757Z,25.74
2018-11-28T10:58:40.926Z,27.51
2018-11-28T11:00:52.917Z,26.12
2018-11-28T11:01:52.666Z,25.27
2018-11-28T11:02:52.962Z,23.85
2018-11-28T11:03:52.465Z,24.64
2018-11-28T11:04:52.685Z,23.61
2018-11-28T11:05:52.634Z,23.86
2018-11-28T11:06:52.496Z,24.26
2018-11-28T11:07:52.394Z,24.98
2018-11-28T11:08:56.377Z,24.99
2018-11-28T11:09:52.533Z,24.36
2018-11-28T11:10:52.427Z,24.70
2018-11-28T11:11:52.319Z,25.42
2018-11-28T11:12:52.922Z,24.98
2018-11-28T11:13:52.505Z,24.99
2018-11-28T11:16:06.937Z,26.11
2018-11-28T11:17:05.944Z,25.01
2018-11-28T11:18:10.506Z,25.39
2018-11-28T11:19:06.711Z,24.54
2018-11-28T11:20:06.150Z,24.32
2018-11-28T11:21:06.079Z,23.38
2018-11-28T11:22:06.328Z,22.91
2018-11-28T11:23:06.138Z,24.16
2018-11-28T11:24:06.138Z,24.77
2018-11-28T11:25:05.974Z,24.54
2018-11-28T11:26:05.738Z,24.11
2018-11-28T11:27:06.570Z,23.60
2018-11-28T11:28:06.045Z,22.66
2018-11-28T11:29:05.770Z,22.67
2018-11-28T11:30:05.669Z,22.77
2018-11-28T11:32:19.019Z,23.20
2018-11-28T11:33:17.681Z,23.48
2018-11-28T11:34:17.658Z,22.57
2018-11-28T11:35:17.480Z,22.56
2018-11-28T11:36:17.382Z,23.08
2018-11-28T11:37:17.654Z,23.69
2018-11-28T11:38:17.893Z,23.18
2018-11-28T11:39:17.407Z,22.77
2018-11-28T11:40:17.615Z,23.94
2018-11-28T11:41:17.521Z,23.93
2018-11-28T11:42:17.426Z,23.71
2018-11-28T11:43:17.341Z,22.58
2018-11-28T11:44:17.955Z,22.67
2018-11-28T11:46:28.963Z,22.58
2018-11-28T11:47:28.340Z,23.20
2018-11-28T11:48:28.846Z,23.92
2018-11-28T11:49:28.203Z,22.69
2018-11-28T11:50:29.231Z,22.17
2018-11-28T11:51:28.203Z,22.69
2018-11-28T11:52:28.461Z,22.99
2018-11-28T11:53:27.992Z,22.69
2018-11-28T11:54:31.337Z,22.77
2018-11-28T11:55:28.834Z,22.71
2018-11-28T11:56:28.923Z,24.15
2018-11-28T11:57:28.294Z,23.84
2018-11-28T11:58:28.518Z,24.50
2018-11-28T11:59:28.015Z,26.92
2018-11-28T12:01:41.083Z,31.47
2018-11-28T12:02:41.075Z,33.36
2018-11-28T12:03:40.931Z,34.45
2018-11-28T12:04:40.830Z,36.22
2018-11-28T12:05:42.922Z,37.59
2018-11-28T12:06:41.079Z,38.54
2018-11-28T12:07:40.860Z,38.95
2018-11-28T12:08:40.759Z,38.76
2018-11-28T12:09:40.977Z,39.69
2018-11-28T12:10:40.887Z,39.52
2018-11-28T12:11:40.987Z,40.48
2018-11-28T12:12:40.701Z,41.88
2018-11-28T12:13:40.910Z,43.56
2018-11-28T12:14:40.812Z,44.28
2018-11-28T12:15:40.851Z,44.08
2018-11-28T12:18:02.988Z,44.84
2018-11-28T12:19:02.555Z,45.07
2018-11-28T12:20:02.455Z,45.59
2018-11-28T12:21:02.414Z,46.00
2018-11-28T12:22:02.567Z,46.23
2018-11-28T12:23:02.952Z,46.34
2018-11-28T12:24:03.111Z,46.13
2018-11-28T12:25:03.101Z,46.54
2018-11-28T12:26:02.976Z,46.85
2018-11-28T12:27:02.711Z,46.56
2018-11-28T12:28:02.308Z,47.08
2018-11-28T12:29:02.673Z,47.81
2018-11-28T12:30:03.348Z,47.99
2018-11-28T12:31:03.010Z,46.54
2018-11-28T12:33:15.034Z,46.46
2018-11-28T12:34:14.012Z,46.69
2018-11-28T12:35:14.011Z,46.88
2018-11-28T12:36:13.840Z,46.56
2018-11-28T12:37:13.758Z,46.88
2018-11-28T12:38:14.938Z,46.56
2018-11-28T12:39:13.851Z,46.46
2018-11-28T12:40:14.021Z,47.42
2018-11-28T12:41:13.969Z,46.69
2018-11-28T12:42:14.341Z,47.52
2018-11-28T12:43:14.029Z,47.83
2018-11-28T12:44:15.050Z,47.94
2018-11-28T12:45:14.041Z,47.83
2018-11-28T12:46:14.083Z,47.94
2018-11-28T12:48:25.105Z,47.31
2018-11-28T12:49:24.025Z,48.56
2018-11-28T12:50:26.195Z,47.52
2018-11-28T12:51:24.412Z,47.44
2018-11-28T12:52:24.302Z,47.52
2018-11-28T12:53:27.024Z,47.63
2018-11-28T12:54:25.171Z,47.85
2018-11-28T12:55:25.269Z,47.44
2018-11-28T12:56:24.564Z,47.75
2018-11-28T12:57:24.116Z,47.25
2018-11-28T12:58:24.398Z,48.29
2018-11-28T12:59:25.521Z,47.56
2018-11-28T13:00:24.514Z,48.39
2018-11-28T13:01:24.500Z,48.16
2018-11-28T13:03:37.054Z,47.46
2018-11-28T13:04:36.668Z,48.19
2018-11-28T13:05:35.960Z,48.16
2018-11-28T13:06:35.953Z,48.81
2018-11-28T13:07:36.039Z,48.58
2018-11-28T13:08:35.979Z,48.89
2018-11-28T13:09:36.040Z,48.91
2018-11-28T13:10:36.708Z,48.91
2018-11-28T13:11:36.057Z,49.10
2018-11-28T13:12:35.973Z,48.81
2018-11-28T13:13:35.819Z,49.20
2018-11-28T13:14:36.034Z,49.12
2018-11-28T13:15:36.692Z,48.81
2018-11-28T13:16:36.014Z,49.12
2018-11-28T13:18:59.081Z,48.91
2018-11-28T13:19:59.018Z,48.79
2018-11-28T13:20:59.064Z,49.22
2018-11-28T13:21:58.052Z,49.22
2018-11-28T13:22:57.992Z,49.54
2018-11-28T13:23:58.150Z,49.12
2018-11-28T13:24:58.054Z,49.02
2018-11-28T13:25:58.061Z,48.91
2018-11-28T13:26:59.224Z,49.12
2018-11-28T13:27:58.076Z,49.12
2018-11-28T13:28:58.332Z,48.91
2018-11-28T13:29:58.115Z,48.91
2018-11-28T13:30:58.475Z,48.71
2018-11-28T13:31:58.076Z,49.22
2018-11-28T13:34:33.165Z,49.15
2018-11-28T13:35:33.113Z,49.64
2018-11-28T13:36:32.401Z,50.05
2018-11-28T13:37:32.220Z,50.57
2018-11-28T13:38:32.831Z,49.98
2018-11-28T13:39:32.459Z,49.87
2018-11-28T13:40:32.172Z,50.08
2018-11-28T13:41:32.173Z,49.87
2018-11-28T13:42:32.441Z,49.46
2018-11-28T13:43:32.350Z,49.77
2018-11-28T13:44:32.876Z,50.42
2018-11-28T13:45:32.135Z,49.90
2018-11-28T13:46:32.290Z,50.73
2018-11-28T13:48:44.085Z,50.73
2018-11-28T13:49:43.102Z,51.32
2018-11-28T13:50:43.051Z,51.22
2018-11-28T13:51:42.954Z,50.93
2018-11-28T13:52:42.837Z,50.52
2018-11-28T13:53:43.090Z,50.62
2018-11-28T13:55:37.306Z,50.73
2018-11-28T13:55:44.091Z,51.35
2018-11-28T13:57:00.779Z,51.17
2018-11-28T13:57:43.981Z,51.68
2018-11-28T13:58:42.906Z,51.27
2018-11-28T13:59:42.912Z,52.08
2018-11-28T14:00:43.091Z,52.00
2018-11-28T14:01:42.935Z,51.89